Terminal Aerodrome Forecast
Issued by NWS

Home | Current Version | Previous Version | Text Only | Print | Product List | Glossary On
Versions: 1 2 3 4 5 6 7 8 9 10 11 12 13 14 15 16 17 18 19 20 21
000
FTUS45 KPSR 211700
TAFSDL
TAF
KSDL 211722Z 2118/2218 16004KT P6SM FEW080 SCT150
     FM212100 24006KT P6SM FEW080 FEW150
     FM220300 VRB03KT P6SM SKC=

USA.gov is the U.S. government's official web portal to all federal, state and local government web resources and services.